createdAt,value
2023-03-22T00:02:16.406Z,95070.53
2023-03-22T00:04:44.383Z,95065.78
2023-03-22T00:07:12.209Z,95064.81
2023-03-22T00:09:40.157Z,95059.66
2023-03-22T00:12:09.488Z,95061.63
2023-03-22T00:14:37.514Z,95058.84
2023-03-22T00:17:05.447Z,95054.31
2023-03-22T00:19:33.858Z,95050.34
2023-03-22T00:22:02.027Z,95045.63
2023-03-22T00:24:29.896Z,95047.44
2023-03-22T00:26:58.648Z,95047.03
2023-03-22T00:29:27.846Z,95037.16
2023-03-22T00:31:56.066Z,95036.19
2023-03-22T00:34:23.980Z,95035.00
2023-03-22T00:36:52.066Z,95024.72
2023-03-22T00:39:20.899Z,95027.06
2023-03-22T00:41:48.816Z,95032.22
2023-03-22T00:44:16.687Z,95023.06
2023-03-22T00:46:47.290Z,95024.88
2023-03-22T00:49:15.347Z,95021.28
2023-03-22T00:51:43.135Z,95022.72
2023-03-22T00:54:11.884Z,95016.00
2023-03-22T00:56:39.813Z,95020.94
2023-03-22T00:59:14.110Z,95008.50
2023-03-22T01:01:44.342Z,95013.44
2023-03-22T01:04:18.093Z,95012.44
2023-03-22T01:06:47.068Z,95015.59
2023-03-22T01:09:15.120Z,95016.97
2023-03-22T01:11:43.798Z,95019.47
2023-03-22T01:14:13.756Z,95018.13
2023-03-22T01:16:41.693Z,95025.03
2023-03-22T01:19:09.841Z,95026.06
2023-03-22T01:21:39.150Z,95022.66
2023-03-22T01:24:07.592Z,95015.59
2023-03-22T01:26:35.787Z,95020.38
2023-03-22T01:29:03.570Z,95010.72
2023-03-22T01:31:31.420Z,95009.94
2023-03-22T01:33:59.383Z,95003.22
2023-03-22T01:36:27.609Z,95006.97
2023-03-22T01:38:57.569Z,95013.91
2023-03-22T01:41:25.436Z,95000.84
2023-03-22T01:44:13.285Z,94999.88
2023-03-22T01:46:41.380Z,95000.50
2023-03-22T01:49:12.160Z,94988.66
2023-03-22T01:51:43.800Z,94993.19
2023-03-22T01:54:28.046Z,94996.91
2023-03-22T01:56:56.373Z,94997.03
2023-03-22T01:59:33.748Z,94995.72
2023-03-22T02:02:30.852Z,94982.09
2023-03-22T02:05:09.149Z,94988.47
2023-03-22T02:07:38.320Z,94993.00
2023-03-22T02:10:16.760Z,94992.59
2023-03-22T02:13:07.148Z,94996.94
2023-03-22T02:15:52.851Z,94993.97
2023-03-22T02:19:05.539Z,94993.59
2023-03-22T02:22:09.765Z,94992.59
2023-03-22T02:25:17.557Z,94984.13
2023-03-22T02:28:09.477Z,94984.53
2023-03-22T02:31:01.282Z,94976.63
2023-03-22T02:34:06.986Z,94973.66
2023-03-22T02:36:59.894Z,94968.53
2023-03-22T02:39:39.922Z,94962.22
2023-03-22T02:42:27.530Z,94965.78
2023-03-22T02:45:02.972Z,94961.06
2023-03-22T02:47:40.645Z,94968.34
2023-03-22T02:50:15.825Z,94967.94
2023-03-22T02:52:51.249Z,94979.75
2023-03-22T02:55:25.088Z,94972.66
2023-03-22T02:57:58.996Z,94989.25
2023-03-22T03:00:27.987Z,94987.69
2023-03-22T03:03:01.134Z,94990.81
2023-03-22T03:05:32.007Z,94983.50
2023-03-22T03:08:03.839Z,94991.03
2023-03-22T03:10:35.524Z,94988.66
2023-03-22T03:13:03.435Z,94986.84
2023-03-22T03:15:31.739Z,94996.13
2023-03-22T03:18:19.743Z,94990.41
2023-03-22T03:21:00.282Z,94982.88
2023-03-22T03:23:35.873Z,94978.72
2023-03-22T03:26:13.124Z,94988.78
2023-03-22T03:28:49.931Z,94984.03
2023-03-22T03:31:30.940Z,94984.00
2023-03-22T03:34:05.046Z,94977.13
2023-03-22T03:36:37.754Z,94982.06
2023-03-22T03:39:11.025Z,94988.97
2023-03-22T03:41:41.833Z,94981.50
2023-03-22T03:44:10.867Z,94990.91
2023-03-22T03:46:39.254Z,94993.41
2023-03-22T03:49:09.954Z,94989.13
2023-03-22T03:51:48.453Z,94988.38
2023-03-22T03:54:16.451Z,94988.75
2023-03-22T03:56:47.709Z,94990.81
2023-03-22T03:59:16.914Z,94985.19
2023-03-22T04:01:52.330Z,94986.72
2023-03-22T04:04:29.539Z,94984.81
2023-03-22T04:07:02.215Z,94977.91
2023-03-22T04:09:35.258Z,94971.34
2023-03-22T04:12:12.978Z,94981.34
2023-03-22T04:14:41.723Z,94982.75
2023-03-22T04:17:19.243Z,94978.22
2023-03-22T04:19:47.126Z,94987.50
2023-03-22T04:22:18.368Z,94986.16
2023-03-22T04:24:50.207Z,94988.72
2023-03-22T04:27:22.821Z,94981.19
2023-03-22T04:30:11.620Z,94989.09
2023-03-22T04:33:06.833Z,94988.94
2023-03-22T04:36:16.051Z,94982.84
2023-03-22T04:38:59.854Z,94983.38
2023-03-22T04:41:29.434Z,94988.25
2023-03-22T04:44:03.434Z,94983.75
2023-03-22T04:46:34.800Z,94973.31
2023-03-22T04:49:06.119Z,94972.31
2023-03-22T04:51:37.640Z,94970.53
2023-03-22T04:54:21.086Z,94969.91
2023-03-22T04:56:50.047Z,94965.66
2023-03-22T04:59:21.464Z,94975.66
2023-03-22T05:01:51.410Z,94973.50
2023-03-22T05:04:23.004Z,94980.97
2023-03-22T05:06:56.249Z,94981.19
2023-03-22T05:09:31.507Z,94979.22
2023-03-22T05:11:59.308Z,94981.16
2023-03-22T05:14:46.392Z,94979.38
2023-03-22T05:17:17.606Z,94971.34
2023-03-22T05:19:45.848Z,94973.44
2023-03-22T05:22:13.964Z,94981.75
2023-03-22T05:24:46.220Z,94982.53
2023-03-22T05:27:31.685Z,94979.63
2023-03-22T05:30:26.777Z,94984.34
2023-03-22T05:33:04.095Z,94984.59
2023-03-22T05:35:38.583Z,94986.34
2023-03-22T05:38:08.077Z,94988.81
2023-03-22T05:40:38.337Z,94989.00
2023-03-22T05:43:06.587Z,94984.72
2023-03-22T05:45:37.756Z,94981.81
2023-03-22T05:48:13.612Z,94990.56
2023-03-22T05:50:42.178Z,94984.63
2023-03-22T05:53:11.593Z,94983.31
2023-03-22T05:55:53.057Z,94984.31
2023-03-22T05:58:21.181Z,94979.22
2023-03-22T06:00:53.052Z,94983.59
2023-03-22T06:03:41.134Z,94988.94
2023-03-22T06:06:29.227Z,94989.09
2023-03-22T06:09:23.166Z,94993.38
2023-03-22T06:11:53.367Z,94983.75
2023-03-22T06:14:21.309Z,94987.88
2023-03-22T06:17:25.695Z,94993.81
2023-03-22T06:19:55.376Z,94990.13
2023-03-22T06:22:23.520Z,94992.16
2023-03-22T06:24:51.677Z,94995.69
2023-03-22T06:27:29.896Z,94988.78
2023-03-22T06:29:57.732Z,94990.13
2023-03-22T06:32:28.567Z,94991.75
2023-03-22T06:34:57.711Z,94981.91
2023-03-22T06:37:26.519Z,94989.13
2023-03-22T06:39:55.379Z,94988.25
2023-03-22T06:42:26.053Z,94985.66
2023-03-22T06:45:04.331Z,94987.84
2023-03-22T06:47:36.727Z,94970.50
2023-03-22T06:50:04.908Z,94996.53
2023-03-22T06:52:58.570Z,94989.06
2023-03-22T06:55:26.372Z,94986.50
2023-03-22T06:57:54.415Z,94993.34
2023-03-22T07:00:47.295Z,94995.16
2023-03-22T07:03:17.704Z,94996.94
2023-03-22T07:06:02.652Z,94991.97
2023-03-22T07:08:33.217Z,94997.22
2023-03-22T07:11:01.093Z,94998.63
2023-03-22T07:13:29.789Z,95000.72
2023-03-22T07:16:03.785Z,95006.91
2023-03-22T07:18:46.442Z,94999.44
2023-03-22T07:21:14.430Z,95008.75
2023-03-22T07:23:44.136Z,95001.78
2023-03-22T07:26:15.771Z,95003.91
2023-03-22T07:28:47.061Z,95009.19
2023-03-22T07:31:17.933Z,95014.78
2023-03-22T07:33:59.147Z,95002.84
2023-03-22T07:36:29.972Z,95010.28
2023-03-22T07:38:58.152Z,94999.81
2023-03-22T07:41:30.670Z,95007.69
2023-03-22T07:44:25.169Z,95015.47
2023-03-22T07:47:11.581Z,95005.69
2023-03-22T07:50:04.040Z,95012.22
2023-03-22T07:52:33.604Z,95009.75
2023-03-22T07:55:01.690Z,95010.03
2023-03-22T07:57:29.495Z,95010.13
2023-03-22T08:00:00.754Z,95003.38
2023-03-22T08:02:54.080Z,95012.22
2023-03-22T08:05:42.813Z,95015.56
2023-03-22T08:08:13.647Z,95016.03
2023-03-22T08:10:41.916Z,95009.75
2023-03-22T08:13:09.788Z,94999.81
2023-03-22T08:15:38.595Z,95010.38
2023-03-22T08:18:08.664Z,95007.13
2023-03-22T08:20:40.541Z,95010.75
2023-03-22T08:23:16.125Z,95013.13
2023-03-22T08:25:58.225Z,94996.97
2023-03-22T08:28:26.191Z,95003.00
2023-03-22T08:30:54.777Z,95005.63
2023-03-22T08:33:23.802Z,95002.06
2023-03-22T08:35:52.584Z,95003.47
2023-03-22T08:38:22.273Z,95005.00
2023-03-22T08:40:54.169Z,95007.09
2023-03-22T08:43:25.166Z,95001.38
2023-03-22T08:45:53.755Z,95006.97
2023-03-22T08:48:22.087Z,95000.94
2023-03-22T08:51:08.944Z,94997.00
2023-03-22T08:53:52.990Z,94989.53
2023-03-22T08:56:41.778Z,94991.22
2023-03-22T08:59:19.903Z,94999.66
2023-03-22T09:02:06.459Z,94994.94
2023-03-22T09:04:34.430Z,94993.22
2023-03-22T09:07:03.791Z,94988.16
2023-03-22T09:09:33.137Z,94993.00
2023-03-22T09:12:01.065Z,94989.16
2023-03-22T09:14:29.478Z,94982.53
2023-03-22T09:16:58.795Z,94986.13
2023-03-22T09:19:27.472Z,94980.88
2023-03-22T09:21:55.610Z,94979.06
2023-03-22T09:24:42.158Z,94971.06
2023-03-22T09:27:10.285Z,94979.03
2023-03-22T09:29:38.514Z,94976.31
2023-03-22T09:32:10.902Z,94968.38
2023-03-22T09:34:40.694Z,94961.66
2023-03-22T09:37:08.901Z,94963.22
2023-03-22T09:39:50.168Z,94959.84
2023-03-22T09:42:34.788Z,94964.13
2023-03-22T09:45:07.724Z,94965.22
2023-03-22T09:47:44.820Z,94958.25
2023-03-22T09:50:16.318Z,94948.59
2023-03-22T09:52:45.052Z,94959.66
2023-03-22T09:55:20.563Z,94948.34
2023-03-22T09:57:54.958Z,94945.09
2023-03-22T10:00:49.545Z,94944.81
2023-03-22T10:03:30.509Z,94944.84
2023-03-22T10:06:03.733Z,94936.75
2023-03-22T10:08:43.209Z,94939.63
2023-03-22T10:11:22.502Z,94932.34
2023-03-22T10:13:59.970Z,94940.66
2023-03-22T10:16:32.819Z,94921.28
2023-03-22T10:19:08.762Z,94931.53
2023-03-22T10:21:37.240Z,94919.84
2023-03-22T10:24:14.590Z,94917.81
2023-03-22T10:26:47.650Z,94917.75
2023-03-22T10:29:23.245Z,94912.63
2023-03-22T10:31:51.191Z,94906.00
2023-03-22T10:34:22.699Z,94912.66
2023-03-22T10:36:52.951Z,94915.47
2023-03-22T10:39:31.652Z,94909.44
2023-03-22T10:42:03.988Z,94909.44
2023-03-22T10:44:37.013Z,94913.22
2023-03-22T10:47:08.310Z,94918.94
2023-03-22T10:49:40.430Z,94906.19
2023-03-22T10:52:23.998Z,94906.59
2023-03-22T10:54:52.045Z,94902.28
2023-03-22T10:57:21.209Z,94906.31
2023-03-22T10:59:51.203Z,94899.44
2023-03-22T11:02:23.930Z,94903.91
2023-03-22T11:04:53.803Z,94898.00
2023-03-22T11:07:34.728Z,94902.94
2023-03-22T11:10:27.404Z,94903.41
2023-03-22T11:13:11.789Z,94905.16
2023-03-22T11:15:42.110Z,94904.06
2023-03-22T11:18:15.737Z,94898.41
2023-03-22T11:20:53.236Z,94903.66
2023-03-22T11:23:22.354Z,94903.75
2023-03-22T11:25:51.995Z,94902.50
2023-03-22T11:28:23.990Z,94897.03
2023-03-22T11:31:00.992Z,94890.63
2023-03-22T11:33:29.184Z,94887.78
2023-03-22T11:35:58.807Z,94889.78
2023-03-22T11:38:30.561Z,94880.13
2023-03-22T11:41:02.648Z,94871.63
2023-03-22T11:43:37.482Z,94875.69
2023-03-22T11:46:06.543Z,94896.69
2023-03-22T11:48:36.270Z,94872.66
2023-03-22T11:51:11.121Z,94882.06
2023-03-22T11:53:41.950Z,94878.56
2023-03-22T11:56:12.621Z,94883.72
2023-03-22T11:59:07.634Z,94877.00
2023-03-22T12:01:41.814Z,94879.53
2023-03-22T12:04:21.036Z,94864.25
2023-03-22T12:06:50.405Z,94848.97
2023-03-22T12:09:26.981Z,94839.88
2023-03-22T12:11:57.778Z,94845.59
2023-03-22T12:14:31.037Z,94829.44
2023-03-22T12:17:02.482Z,94832.91
2023-03-22T12:19:49.656Z,94827.88
2023-03-22T12:22:21.937Z,94831.31
2023-03-22T12:24:49.723Z,94834.78
2023-03-22T12:27:21.800Z,94826.03
2023-03-22T12:29:55.711Z,94836.56
2023-03-22T12:32:27.894Z,94826.03
2023-03-22T12:35:09.092Z,94823.38
2023-03-22T12:37:44.311Z,94813.56
2023-03-22T12:40:21.770Z,94814.16
2023-03-22T12:43:00.122Z,94805.28
2023-03-22T12:45:32.767Z,94794.03
2023-03-22T12:48:07.275Z,94794.06
2023-03-22T12:50:39.729Z,94790.53
2023-03-22T12:53:12.463Z,94797.75
2023-03-22T12:55:42.054Z,94778.22
2023-03-22T12:58:11.613Z,94788.41
2023-03-22T13:00:46.792Z,94764.53
2023-03-22T13:03:26.785Z,94790.22
2023-03-22T13:06:02.789Z,94772.13
2023-03-22T13:09:13.163Z,94778.66
2023-03-22T13:11:41.185Z,94759.84
2023-03-22T13:14:12.530Z,94769.56
2023-03-22T13:16:50.996Z,94763.06
2023-03-22T13:19:28.821Z,94759.44
2023-03-22T13:22:16.508Z,94762.84
2023-03-22T13:25:14.411Z,94767.56
2023-03-22T13:27:51.252Z,94760.53
2023-03-22T13:30:25.826Z,94760.25
2023-03-22T13:32:58.069Z,94760.25
2023-03-22T13:35:29.019Z,94759.72
2023-03-22T13:38:03.783Z,94757.94
2023-03-22T13:40:37.767Z,94752.47
2023-03-22T13:43:24.664Z,94770.13
2023-03-22T13:46:07.276Z,94767.44
2023-03-22T13:48:45.852Z,94761.47
2023-03-22T13:51:18.477Z,94751.13
2023-03-22T13:53:57.628Z,94750.38
2023-03-22T13:56:33.677Z,94765.44
2023-03-22T13:59:04.866Z,94749.84
2023-03-22T14:01:36.219Z,94752.44
2023-03-22T14:04:12.240Z,94737.38
2023-03-22T14:06:49.983Z,94735.28
2023-03-22T14:09:27.057Z,94746.19
2023-03-22T14:12:00.854Z,94742.03
2023-03-22T14:14:33.502Z,94738.09
2023-03-22T14:17:04.997Z,94739.72
2023-03-22T14:19:37.650Z,94721.28
